Pagina principale
METAR-TAF:

METAR-TAF

Aeroporti :

Aeroporto di Guidonia

Guidonia Montecelio, Italia

latitudine: 42-00N, longitudine: 012-44E, altezza: 88 m

METAR: mancante

Ora: 21:25 (19:25 UTC)

Previsione

Il bollettino è stato emesso 29 ore e 25 minuti fa, alle 14:00 UTC
Previsione valida dal 22 alle 15 UTC al 22 alle 24 UTC
Vento 10 kt da sud-ovest
Visibilità 10 km o più
Poco nuvoloso ad un'altezza di 2000 ft
Nubi sparse ad un'altezza di 3500 ft
Probabilità 30% :
Temporaneamente
dal 22 alle 15 UTC al 22 alle 17 UTC
Poco nuvoloso ad un'altezza di 1800 ft, Cumulonembo.
Nuvoloso ad un'altezza di 2000 ft
temporale, pioggia
Evoluzione graduale
dal 22 alle 17 UTC al 22 alle 19 UTC
Vento 3 kt da direzioni variabili

TAF: LIRG 221400Z 2215/2224 23010KT 9999 FEW020 SCT035 PROB30 TEMPO 2215/2217 TSRA FEW018CB BKN020 BECMG 2217/2219 VRB03KT

Osservazioni e previsioni meteorologiche di più di 4000 aeroporti (messaggi METAR e TAF).

Le stazioni disponibili sono rappresentate dai dischi gialli e rossi sulla carta.

Puntare il mouse per vedere il nome della stazione.

Clicca sopra per visualizzare le osservazioni e previsioni meteorologiche.

Per cambiare la mappa : fare clic sui pulsanti verdi con una croce nera per ingrandire, il pulsante verde con un trattino per diminuire, o sulla freccia verde per le mappe adiacenti.


METAR-TAF: